sensor_id;sensor_type;location;lat;lon;timestamp;temperature;humidity
871;DHT22;422;51.280;7.236;2023-08-06T00:00:02;15.00;99.90
871;DHT22;422;51.280;7.236;2023-08-06T00:02:30;15.00;99.90
871;DHT22;422;51.280;7.236;2023-08-06T00:04:57;15.00;1.00
871;DHT22;422;51.280;7.236;2023-08-06T00:07:24;15.00;99.90
871;DHT22;422;51.280;7.236;2023-08-06T00:09:52;15.10;1.00
871;DHT22;422;51.280;7.236;2023-08-06T00:12:19;15.00;1.00
871;DHT22;422;51.280;7.236;2023-08-06T00:14:50;15.10;99.90
871;DHT22;422;51.280;7.236;2023-08-06T00:17:17;15.10;1.00
871;DHT22;422;51.280;7.236;2023-08-06T00:19:44;15.10;1.00
871;DHT22;422;51.280;7.236;2023-08-06T00:22:11;15.20;1.00
871;DHT22;422;51.280;7.236;2023-08-06T00:24:39;15.10;1.00
871;DHT22;422;51.280;7.236;2023-08-06T00:27:06;15.10;99.90
871;DHT22;422;51.280;7.236;2023-08-06T00:29:34;15.20;1.00
871;DHT22;422;51.280;7.236;2023-08-06T00:32:03;15.20;99.90
871;DHT22;422;51.280;7.236;2023-08-06T00:34:30;15.10;1.00
871;DHT22;422;51.280;7.236;2023-08-06T00:36:57;15.20;99.90
871;DHT22;422;51.280;7.236;2023-08-06T00:39:24;15.20;42.00
871;DHT22;422;51.280;7.236;2023-08-06T00:41:51;15.10;1.00
871;DHT22;422;51.280;7.236;2023-08-06T00:44:18;15.20;1.00
871;DHT22;422;51.280;7.236;2023-08-06T00:46:45;15.10;99.90
871;DHT22;422;51.280;7.236;2023-08-06T00:49:14;15.10;99.90
871;DHT22;422;51.280;7.236;2023-08-06T00:51:42;15.10;1.00
871;DHT22;422;51.280;7.236;2023-08-06T00:54:10;15.00;1.00
871;DHT22;422;51.280;7.236;2023-08-06T00:56:37;15.00;1.00
871;DHT22;422;51.280;7.236;2023-08-06T00:59:05;15.10;99.90
871;DHT22;422;51.280;7.236;2023-08-06T01:01:32;15.10;99.90
871;DHT22;422;51.280;7.236;2023-08-06T01:04:00;15.00;99.90
871;DHT22;422;51.280;7.236;2023-08-06T01:06:37;14.90;99.90
871;DHT22;422;51.280;7.236;2023-08-06T01:09:14;14.90;99.90
871;DHT22;422;51.280;7.236;2023-08-06T01:11:49;14.90;1.00
871;DHT22;422;51.280;7.236;2023-08-06T01:14:23;14.80;1.00
871;DHT22;422;51.280;7.236;2023-08-06T01:16:52;14.90;1.00
871;DHT22;422;51.280;7.236;2023-08-06T01:19:21;14.90;1.00
871;DHT22;422;51.280;7.236;2023-08-06T01:21:50;14.90;1.00
871;DHT22;422;51.280;7.236;2023-08-06T01:24:17;14.90;1.00
871;DHT22;422;51.280;7.236;2023-08-06T01:26:48;14.90;99.90
871;DHT22;422;51.280;7.236;2023-08-06T01:29:23;14.90;99.90
871;DHT22;422;51.280;7.236;2023-08-06T01:31:53;14.90;99.90
871;DHT22;422;51.280;7.236;2023-08-06T01:34:24;14.90;1.00
871;DHT22;422;51.280;7.236;2023-08-06T01:36:54;14.90;1.00
871;DHT22;422;51.280;7.236;2023-08-06T01:39:21;14.90;99.90
871;DHT22;422;51.280;7.236;2023-08-06T01:41:48;14.90;1.00
871;DHT22;422;51.280;7.236;2023-08-06T01:44:16;14.90;1.00
871;DHT22;422;51.280;7.236;2023-08-06T01:46:43;14.90;1.00
871;DHT22;422;51.280;7.236;2023-08-06T01:49:10;14.90;83.80
871;DHT22;422;51.280;7.236;2023-08-06T01:51:37;14.90;1.00
871;DHT22;422;51.280;7.236;2023-08-06T01:54:06;14.90;1.00
871;DHT22;422;51.280;7.236;2023-08-06T01:56:33;15.00;1.00
871;DHT22;422;51.280;7.236;2023-08-06T01:59:00;15.00;1.00
871;DHT22;422;51.280;7.236;2023-08-06T02:01:27;15.00;1.00
871;DHT22;422;51.280;7.236;2023-08-06T02:03:54;15.00;99.90
871;DHT22;422;51.280;7.236;2023-08-06T02:06:21;15.00;1.00
871;DHT22;422;51.280;7.236;2023-08-06T02:08:48;15.00;1.00
871;DHT22;422;51.280;7.236;2023-08-06T02:11:17;15.00;1.00
871;DHT22;422;51.280;7.236;2023-08-06T02:13:46;15.00;1.00
871;DHT22;422;51.280;7.236;2023-08-06T02:16:13;15.00;1.00
871;DHT22;422;51.280;7.236;2023-08-06T02:18:40;15.00;99.90
871;DHT22;422;51.280;7.236;2023-08-06T02:21:07;15.00;99.90
871;DHT22;422;51.280;7.236;2023-08-06T02:23:34;15.00;99.90
871;DHT22;422;51.280;7.236;2023-08-06T02:26:03;15.00;99.90
871;DHT22;422;51.280;7.236;2023-08-06T02:28:32;15.00;99.90
871;DHT22;422;51.280;7.236;2023-08-06T02:30:59;15.00;99.90
871;DHT22;422;51.280;7.236;2023-08-06T02:33:27;15.00;99.90
871;DHT22;422;51.280;7.236;2023-08-06T02:35:59;15.00;99.90
871;DHT22;422;51.280;7.236;2023-08-06T02:38:27;15.00;1.00
871;DHT22;422;51.280;7.236;2023-08-06T02:40:54;15.00;99.90
871;DHT22;422;51.280;7.236;2023-08-06T02:43:21;14.90;99.90
871;DHT22;422;51.280;7.236;2023-08-06T02:45:50;14.90;99.90
871;DHT22;422;51.280;7.236;2023-08-06T02:48:17;15.00;1.00
871;DHT22;422;51.280;7.236;2023-08-06T02:50:44;15.00;1.00
871;DHT22;422;51.280;7.236;2023-08-06T02:53:11;15.00;99.90
871;DHT22;422;51.280;7.236;2023-08-06T02:55:45;15.00;99.90
871;DHT22;422;51.280;7.236;2023-08-06T02:58:13;15.00;9.10
871;DHT22;422;51.280;7.236;2023-08-06T03:00:41;15.00;1.00
871;DHT22;422;51.280;7.236;2023-08-06T03:03:10;15.00;1.00
871;DHT22;422;51.280;7.236;2023-08-06T03:05:37;15.00;1.00
871;DHT22;422;51.280;7.236;2023-08-06T03:08:05;15.00;1.00
871;DHT22;422;51.280;7.236;2023-08-06T03:10:32;15.00;1.00
871;DHT22;422;51.280;7.236;2023-08-06T03:12:59;15.00;1.00
871;DHT22;422;51.280;7.236;2023-08-06T03:15:26;14.90;1.00
871;DHT22;422;51.280;7.236;2023-08-06T03:17:56;14.90;1.00
871;DHT22;422;51.280;7.236;2023-08-06T03:20:25;14.90;1.00
871;DHT22;422;51.280;7.236;2023-08-06T03:22:52;14.90;1.00
871;DHT22;422;51.280;7.236;2023-08-06T03:25:19;14.90;1.00
871;DHT22;422;51.280;7.236;2023-08-06T03:27:46;14.90;1.00
871;DHT22;422;51.280;7.236;2023-08-06T03:30:13;15.00;1.00
871;DHT22;422;51.280;7.236;2023-08-06T03:32:41;14.90;1.00
871;DHT22;422;51.280;7.236;2023-08-06T03:35:08;14.90;58.80
871;DHT22;422;51.280;7.236;2023-08-06T03:37:36;15.00;99.90
871;DHT22;422;51.280;7.236;2023-08-06T03:40:04;14.90;50.10
871;DHT22;422;51.280;7.236;2023-08-06T03:42:32;14.90;99.90
871;DHT22;422;51.280;7.236;2023-08-06T03:44:59;14.90;99.90
871;DHT22;422;51.280;7.236;2023-08-06T03:47:26;14.90;99.90
871;DHT22;422;51.280;7.236;2023-08-06T03:49:53;14.90;1.00
871;DHT22;422;51.280;7.236;2023-08-06T03:52:20;14.90;99.90
871;DHT22;422;51.280;7.236;2023-08-06T03:54:49;14.90;99.90
871;DHT22;422;51.280;7.236;2023-08-06T03:57:16;14.90;99.90
871;DHT22;422;51.280;7.236;2023-08-06T03:59:43;14.90;99.90
871;DHT22;422;51.280;7.236;2023-08-06T04:02:10;14.90;1.00
871;DHT22;422;51.280;7.236;2023-08-06T04:04:37;14.90;99.90
871;DHT22;422;51.280;7.236;2023-08-06T04:07:05;14.90;99.90
871;DHT22;422;51.280;7.236;2023-08-06T04:09:32;14.90;99.90
871;DHT22;422;51.280;7.236;2023-08-06T04:12:00;14.90;1.00
871;DHT22;422;51.280;7.236;2023-08-06T04:14:28;14.80;99.90
871;DHT22;422;51.280;7.236;2023-08-06T04:16:55;14.90;1.00
871;DHT22;422;51.280;7.236;2023-08-06T04:19:22;14.80;99.90
871;DHT22;422;51.280;7.236;2023-08-06T04:21:50;14.80;99.90
871;DHT22;422;51.280;7.236;2023-08-06T04:24:17;14.80;1.00
871;DHT22;422;51.280;7.236;2023-08-06T04:26:44;14.80;99.90
871;DHT22;422;51.280;7.236;2023-08-06T04:29:13;14.90;1.00
871;DHT22;422;51.280;7.236;2023-08-06T04:31:40;14.90;99.90
871;DHT22;422;51.280;7.236;2023-08-06T04:34:07;14.90;99.90
871;DHT22;422;51.280;7.236;2023-08-06T04:36:35;14.90;99.90
871;DHT22;422;51.280;7.236;2023-08-06T04:39:02;14.80;99.90
871;DHT22;422;51.280;7.236;2023-08-06T04:41:29;14.80;24.40
871;DHT22;422;51.280;7.236;2023-08-06T04:43:56;14.90;1.00
871;DHT22;422;51.280;7.236;2023-08-06T04:46:25;14.90;1.00
871;DHT22;422;51.280;7.236;2023-08-06T04:48:52;14.80;1.00
871;DHT22;422;51.280;7.236;2023-08-06T04:51:19;14.90;1.00
871;DHT22;422;51.280;7.236;2023-08-06T04:53:46;14.90;99.90
871;DHT22;422;51.280;7.236;2023-08-06T04:56:13;15.00;99.90
871;DHT22;422;51.280;7.236;2023-08-06T04:58:41;15.00;99.90
871;DHT22;422;51.280;7.236;2023-08-06T05:01:08;15.00;99.90
871;DHT22;422;51.280;7.236;2023-08-06T05:03:37;15.10;1.00
871;DHT22;422;51.280;7.236;2023-08-06T05:06:04;15.10;1.00
871;DHT22;422;51.280;7.236;2023-08-06T05:08:32;15.20;1.00
871;DHT22;422;51.280;7.236;2023-08-06T05:10:59;15.20;1.00
871;DHT22;422;51.280;7.236;2023-08-06T05:13:26;15.20;99.90
871;DHT22;422;51.280;7.236;2023-08-06T05:15:54;15.20;1.00
871;DHT22;422;51.280;7.236;2023-08-06T05:18:21;15.20;1.00
871;DHT22;422;51.280;7.236;2023-08-06T05:20:50;15.30;1.00
871;DHT22;422;51.280;7.236;2023-08-06T05:23:17;15.40;1.00
871;DHT22;422;51.280;7.236;2023-08-06T05:25:44;15.50;1.00
871;DHT22;422;51.280;7.236;2023-08-06T05:28:11;15.60;99.90
871;DHT22;422;51.280;7.236;2023-08-06T05:30:40;15.60;1.00
871;DHT22;422;51.280;7.236;2023-08-06T05:33:07;15.70;99.90
871;DHT22;422;51.280;7.236;2023-08-06T05:35:34;15.70;36.00
871;DHT22;422;51.280;7.236;2023-08-06T05:38:03;15.70;1.00
871;DHT22;422;51.280;7.236;2023-08-06T05:40:30;15.80;1.00
871;DHT22;422;51.280;7.236;2023-08-06T05:42:59;15.80;1.00
871;DHT22;422;51.280;7.236;2023-08-06T05:45:27;15.80;1.00
871;DHT22;422;51.280;7.236;2023-08-06T05:47:54;15.80;1.00
871;DHT22;422;51.280;7.236;2023-08-06T05:50:23;15.80;1.00
871;DHT22;422;51.280;7.236;2023-08-06T05:52:50;15.80;1.00
871;DHT22;422;51.280;7.236;2023-08-06T05:55:20;15.80;1.00
871;DHT22;422;51.280;7.236;2023-08-06T05:57:47;15.80;1.00
871;DHT22;422;51.280;7.236;2023-08-06T06:00:14;15.80;1.00
871;DHT22;422;51.280;7.236;2023-08-06T06:02:42;15.80;1.00
871;DHT22;422;51.280;7.236;2023-08-06T06:05:09;15.90;1.00
871;DHT22;422;51.280;7.236;2023-08-06T06:07:36;15.80;99.90
871;DHT22;422;51.280;7.236;2023-08-06T06:10:04;15.80;99.90
871;DHT22;422;51.280;7.236;2023-08-06T06:12:32;15.90;99.90
871;DHT22;422;51.280;7.236;2023-08-06T06:15:00;15.90;99.90
871;DHT22;422;51.280;7.236;2023-08-06T06:17:27;15.90;99.90
871;DHT22;422;51.280;7.236;2023-08-06T06:19:54;16.00;1.00
871;DHT22;422;51.280;7.236;2023-08-06T06:22:22;16.00;1.00
871;DHT22;422;51.280;7.236;2023-08-06T06:24:49;16.10;99.90
871;DHT22;422;51.280;7.236;2023-08-06T06:27:16;16.20;99.90
871;DHT22;422;51.280;7.236;2023-08-06T06:29:45;16.20;99.90
871;DHT22;422;51.280;7.236;2023-08-06T06:32:12;16.30;99.90
871;DHT22;422;51.280;7.236;2023-08-06T06:34:39;16.40;99.90
871;DHT22;422;51.280;7.236;2023-08-06T06:37:06;16.40;99.90
871;DHT22;422;51.280;7.236;2023-08-06T06:39:33;16.50;99.90
871;DHT22;422;51.280;7.236;2023-08-06T06:42:00;16.60;99.90
871;DHT22;422;51.280;7.236;2023-08-06T06:44:27;16.80;99.90
871;DHT22;422;51.280;7.236;2023-08-06T06:46:56;16.90;99.90
871;DHT22;422;51.280;7.236;2023-08-06T06:49:23;17.00;94.00
871;DHT22;422;51.280;7.236;2023-08-06T06:51:51;17.20;36.40
871;DHT22;422;51.280;7.236;2023-08-06T06:54:18;17.40;1.00
871;DHT22;422;51.280;7.236;2023-08-06T06:56:45;17.40;1.00
871;DHT22;422;51.280;7.236;2023-08-06T06:59:12;17.40;1.00
871;DHT22;422;51.280;7.236;2023-08-06T07:01:42;17.50;1.00
871;DHT22;422;51.280;7.236;2023-08-06T07:04:11;17.50;1.00
871;DHT22;422;51.280;7.236;2023-08-06T07:06:38;17.50;1.00
871;DHT22;422;51.280;7.236;2023-08-06T07:09:05;17.60;1.00
871;DHT22;422;51.280;7.236;2023-08-06T07:11:33;18.10;1.00
871;DHT22;422;51.280;7.236;2023-08-06T07:14:00;18.60;1.00
871;DHT22;422;51.280;7.236;2023-08-06T07:16:27;19.10;1.00
871;DHT22;422;51.280;7.236;2023-08-06T07:18:55;19.20;1.00
871;DHT22;422;51.280;7.236;2023-08-06T07:21:23;19.30;1.00
871;DHT22;422;51.280;7.236;2023-08-06T07:23:50;19.10;1.00
871;DHT22;422;51.280;7.236;2023-08-06T07:26:18;19.50;1.00
871;DHT22;422;51.280;7.236;2023-08-06T07:28:45;20.00;1.00
871;DHT22;422;51.280;7.236;2023-08-06T07:31:12;20.10;1.00
871;DHT22;422;51.280;7.236;2023-08-06T07:33:39;20.00;1.00
871;DHT22;422;51.280;7.236;2023-08-06T07:36:10;19.80;1.00
871;DHT22;422;51.280;7.236;2023-08-06T07:38:40;19.50;1.00
871;DHT22;422;51.280;7.236;2023-08-06T07:41:07;19.40;1.00
871;DHT22;422;51.280;7.236;2023-08-06T07:43:34;19.30;1.00
871;DHT22;422;51.280;7.236;2023-08-06T07:46:02;19.20;1.00
871;DHT22;422;51.280;7.236;2023-08-06T07:48:29;19.20;1.00
871;DHT22;422;51.280;7.236;2023-08-06T07:50:57;19.30;1.00
871;DHT22;422;51.280;7.236;2023-08-06T07:53:25;19.40;1.00
871;DHT22;422;51.280;7.236;2023-08-06T07:55:57;19.60;1.00
871;DHT22;422;51.280;7.236;2023-08-06T07:58:25;19.60;1.00
871;DHT22;422;51.280;7.236;2023-08-06T08:00:52;19.60;1.00
871;DHT22;422;51.280;7.236;2023-08-06T08:03:19;19.70;1.00
871;DHT22;422;51.280;7.236;2023-08-06T08:05:47;19.70;1.00
871;DHT22;422;51.280;7.236;2023-08-06T08:08:14;19.60;1.00
871;DHT22;422;51.280;7.236;2023-08-06T08:10:42;19.60;1.00
871;DHT22;422;51.280;7.236;2023-08-06T08:13:11;19.70;1.00
871;DHT22;422;51.280;7.236;2023-08-06T08:15:38;19.70;1.00
871;DHT22;422;51.280;7.236;2023-08-06T08:18:05;19.80;1.00
871;DHT22;422;51.280;7.236;2023-08-06T08:20:33;19.80;1.00
871;DHT22;422;51.280;7.236;2023-08-06T08:23:01;19.90;1.00
871;DHT22;422;51.280;7.236;2023-08-06T08:25:29;20.00;1.00
871;DHT22;422;51.280;7.236;2023-08-06T08:27:58;20.20;1.00
871;DHT22;422;51.280;7.236;2023-08-06T08:30:26;20.20;99.90
871;DHT22;422;51.280;7.236;2023-08-06T08:32:54;20.00;99.90
871;DHT22;422;51.280;7.236;2023-08-06T08:35:21;19.80;99.90
871;DHT22;422;51.280;7.236;2023-08-06T08:37:48;19.30;1.00
871;DHT22;422;51.280;7.236;2023-08-06T08:40:16;19.10;1.00
871;DHT22;422;51.280;7.236;2023-08-06T08:42:44;18.70;1.00
871;DHT22;422;51.280;7.236;2023-08-06T08:45:13;18.40;1.00
871;DHT22;422;51.280;7.236;2023-08-06T08:47:43;18.40;1.00
871;DHT22;422;51.280;7.236;2023-08-06T08:50:10;18.20;1.00
871;DHT22;422;51.280;7.236;2023-08-06T08:52:39;18.20;1.00
871;DHT22;422;51.280;7.236;2023-08-06T08:55:08;18.30;1.00
871;DHT22;422;51.280;7.236;2023-08-06T08:57:36;18.20;1.00
871;DHT22;422;51.280;7.236;2023-08-06T09:00:03;18.20;1.00
871;DHT22;422;51.280;7.236;2023-08-06T09:02:33;18.30;1.00
871;DHT22;422;51.280;7.236;2023-08-06T09:05:03;18.50;1.00
871;DHT22;422;51.280;7.236;2023-08-06T09:07:35;18.40;1.00
871;DHT22;422;51.280;7.236;2023-08-06T09:10:07;18.60;1.00
871;DHT22;422;51.280;7.236;2023-08-06T09:12:37;18.70;1.00
871;DHT22;422;51.280;7.236;2023-08-06T09:15:06;18.20;1.00
871;DHT22;422;51.280;7.236;2023-08-06T09:17:33;18.20;1.00
871;DHT22;422;51.280;7.236;2023-08-06T09:20:13;18.30;1.00
871;DHT22;422;51.280;7.236;2023-08-06T09:22:41;18.30;1.00
871;DHT22;422;51.280;7.236;2023-08-06T09:25:11;18.30;1.00
871;DHT22;422;51.280;7.236;2023-08-06T09:27:39;18.00;1.00
871;DHT22;422;51.280;7.236;2023-08-06T09:30:07;18.00;1.00
871;DHT22;422;51.280;7.236;2023-08-06T09:32:48;18.20;1.00
871;DHT22;422;51.280;7.236;2023-08-06T09:35:20;18.50;1.00
871;DHT22;422;51.280;7.236;2023-08-06T09:37:47;18.80;1.00
871;DHT22;422;51.280;7.236;2023-08-06T09:40:30;19.20;99.90
871;DHT22;422;51.280;7.236;2023-08-06T09:42:58;19.30;99.90
871;DHT22;422;51.280;7.236;2023-08-06T09:45:30;18.90;99.90
871;DHT22;422;51.280;7.236;2023-08-06T09:47:59;18.90;99.90
871;DHT22;422;51.280;7.236;2023-08-06T09:50:30;19.00;99.90
871;DHT22;422;51.280;7.236;2023-08-06T09:52:58;19.10;99.90
871;DHT22;422;51.280;7.236;2023-08-06T09:55:26;19.20;1.00
871;DHT22;422;51.280;7.236;2023-08-06T09:57:54;19.20;99.90
871;DHT22;422;51.280;7.236;2023-08-06T10:00:22;19.30;99.90
871;DHT22;422;51.280;7.236;2023-08-06T10:02:50;19.20;99.90
871;DHT22;422;51.280;7.236;2023-08-06T10:05:22;19.40;99.90
871;DHT22;422;51.280;7.236;2023-08-06T10:07:51;19.30;99.90
871;DHT22;422;51.280;7.236;2023-08-06T10:10:19;19.50;99.90
871;DHT22;422;51.280;7.236;2023-08-06T10:12:49;19.30;99.90
871;DHT22;422;51.280;7.236;2023-08-06T10:15:22;19.70;99.90
871;DHT22;422;51.280;7.236;2023-08-06T10:17:52;20.00;99.90
871;DHT22;422;51.280;7.236;2023-08-06T10:20:21;20.10;99.90
871;DHT22;422;51.280;7.236;2023-08-06T10:23:01;20.30;99.90
871;DHT22;422;51.280;7.236;2023-08-06T10:25:31;20.20;99.90
871;DHT22;422;51.280;7.236;2023-08-06T10:28:00;20.30;99.90
871;DHT22;422;51.280;7.236;2023-08-06T10:30:29;20.00;99.90
871;DHT22;422;51.280;7.236;2023-08-06T10:32:58;20.30;99.90
871;DHT22;422;51.280;7.236;2023-08-06T10:35:37;19.90;99.90
871;DHT22;422;51.280;7.236;2023-08-06T10:38:08;19.70;99.90
871;DHT22;422;51.280;7.236;2023-08-06T10:40:39;19.20;1.00
871;DHT22;422;51.280;7.236;2023-08-06T10:43:08;19.00;1.00
871;DHT22;422;51.280;7.236;2023-08-06T10:45:52;18.40;1.00
871;DHT22;422;51.280;7.236;2023-08-06T10:48:29;18.10;1.00
871;DHT22;422;51.280;7.236;2023-08-06T10:50:59;17.70;1.00
871;DHT22;422;51.280;7.236;2023-08-06T10:53:28;17.60;48.90
871;DHT22;422;51.280;7.236;2023-08-06T10:55:57;17.60;82.70
871;DHT22;422;51.280;7.236;2023-08-06T10:58:25;17.70;37.40
871;DHT22;422;51.280;7.236;2023-08-06T11:00:52;17.60;4.80
871;DHT22;422;51.280;7.236;2023-08-06T11:03:20;17.70;23.20
871;DHT22;422;51.280;7.236;2023-08-06T11:05:54;17.50;1.00
871;DHT22;422;51.280;7.236;2023-08-06T11:08:24;17.50;1.00
871;DHT22;422;51.280;7.236;2023-08-06T11:10:54;17.50;40.60
871;DHT22;422;51.280;7.236;2023-08-06T11:13:21;17.40;99.90
871;DHT22;422;51.280;7.236;2023-08-06T11:15:50;17.20;1.00
871;DHT22;422;51.280;7.236;2023-08-06T11:18:19;17.30;69.20
871;DHT22;422;51.280;7.236;2023-08-06T11:20:47;17.30;14.70
871;DHT22;422;51.280;7.236;2023-08-06T11:23:15;17.10;2.80
871;DHT22;422;51.280;7.236;2023-08-06T11:25:44;16.90;99.90
871;DHT22;422;51.280;7.236;2023-08-06T11:28:14;16.70;99.90
871;DHT22;422;51.280;7.236;2023-08-06T11:30:41;16.40;99.90
871;DHT22;422;51.280;7.236;2023-08-06T11:33:08;16.20;1.00
871;DHT22;422;51.280;7.236;2023-08-06T11:35:36;16.00;1.00
871;DHT22;422;51.280;7.236;2023-08-06T11:38:05;15.80;82.40
871;DHT22;422;51.280;7.236;2023-08-06T11:40:32;15.90;1.00
871;DHT22;422;51.280;7.236;2023-08-06T11:43:00;16.00;1.00
871;DHT22;422;51.280;7.236;2023-08-06T11:45:29;15.90;93.30
871;DHT22;422;51.280;7.236;2023-08-06T11:47:57;15.90;99.90
871;DHT22;422;51.280;7.236;2023-08-06T11:50:26;15.90;99.90
871;DHT22;422;51.280;7.236;2023-08-06T11:52:56;15.80;56.90
871;DHT22;422;51.280;7.236;2023-08-06T11:55:24;15.60;1.00
871;DHT22;422;51.280;7.236;2023-08-06T11:57:52;15.70;99.90
871;DHT22;422;51.280;7.236;2023-08-06T12:00:19;15.60;99.90
871;DHT22;422;51.280;7.236;2023-08-06T12:02:49;15.60;99.90
871;DHT22;422;51.280;7.236;2023-08-06T12:05:19;15.70;1.00
871;DHT22;422;51.280;7.236;2023-08-06T12:07:50;15.60;90.70
871;DHT22;422;51.280;7.236;2023-08-06T12:10:19;15.60;1.00
871;DHT22;422;51.280;7.236;2023-08-06T12:12:47;15.60;99.90
871;DHT22;422;51.280;7.236;2023-08-06T12:15:16;15.40;99.90
871;DHT22;422;51.280;7.236;2023-08-06T12:17:43;15.50;99.90
871;DHT22;422;51.280;7.236;2023-08-06T12:20:12;15.40;99.90
871;DHT22;422;51.280;7.236;2023-08-06T12:22:40;15.30;99.90
871;DHT22;422;51.280;7.236;2023-08-06T12:25:09;15.30;1.00
871;DHT22;422;51.280;7.236;2023-08-06T12:27:39;15.30;99.90
871;DHT22;422;51.280;7.236;2023-08-06T12:30:07;15.10;1.00
871;DHT22;422;51.280;7.236;2023-08-06T12:32:34;15.10;99.90
871;DHT22;422;51.280;7.236;2023-08-06T12:35:02;15.00;99.90
871;DHT22;422;51.280;7.236;2023-08-06T12:37:32;14.80;1.00
871;DHT22;422;51.280;7.236;2023-08-06T12:39:59;14.70;99.90
871;DHT22;422;51.280;7.236;2023-08-06T12:42:26;14.60;95.90
871;DHT22;422;51.280;7.236;2023-08-06T12:44:54;14.60;99.90
871;DHT22;422;51.280;7.236;2023-08-06T12:47:21;14.30;99.90
871;DHT22;422;51.280;7.236;2023-08-06T12:49:51;14.40;1.00
871;DHT22;422;51.280;7.236;2023-08-06T12:52:18;14.40;1.00
871;DHT22;422;51.280;7.236;2023-08-06T12:54:47;14.30;1.00
871;DHT22;422;51.280;7.236;2023-08-06T12:57:15;14.30;99.90
871;DHT22;422;51.280;7.236;2023-08-06T12:59:43;14.50;99.90
871;DHT22;422;51.280;7.236;2023-08-06T13:02:10;14.50;99.90
871;DHT22;422;51.280;7.236;2023-08-06T13:04:38;14.60;99.90
871;DHT22;422;51.280;7.236;2023-08-06T13:07:05;14.80;99.90
871;DHT22;422;51.280;7.236;2023-08-06T13:09:33;14.70;98.40
871;DHT22;422;51.280;7.236;2023-08-06T13:12:02;14.80;99.90
871;DHT22;422;51.280;7.236;2023-08-06T13:14:32;14.60;1.00
871;DHT22;422;51.280;7.236;2023-08-06T13:16:59;14.70;99.90
871;DHT22;422;51.280;7.236;2023-08-06T13:19:27;14.60;99.90
871;DHT22;422;51.280;7.236;2023-08-06T13:22:02;14.60;99.90
871;DHT22;422;51.280;7.236;2023-08-06T13:24:32;14.80;99.90
871;DHT22;422;51.280;7.236;2023-08-06T13:27:02;14.70;99.90
871;DHT22;422;51.280;7.236;2023-08-06T13:29:29;14.70;99.90
871;DHT22;422;51.280;7.236;2023-08-06T13:31:56;14.50;99.90
871;DHT22;422;51.280;7.236;2023-08-06T13:34:25;14.60;99.90
871;DHT22;422;51.280;7.236;2023-08-06T13:36:52;14.90;99.90
871;DHT22;422;51.280;7.236;2023-08-06T13:39:19;14.80;99.90
871;DHT22;422;51.280;7.236;2023-08-06T13:41:47;14.90;99.90
871;DHT22;422;51.280;7.236;2023-08-06T13:44:16;15.00;99.90
871;DHT22;422;51.280;7.236;2023-08-06T13:46:43;15.00;99.90
871;DHT22;422;51.280;7.236;2023-08-06T13:49:11;15.00;52.00
871;DHT22;422;51.280;7.236;2023-08-06T13:51:39;14.80;1.00
871;DHT22;422;51.280;7.236;2023-08-06T13:54:06;14.70;69.70
871;DHT22;422;51.280;7.236;2023-08-06T13:56:35;14.70;99.90
871;DHT22;422;51.280;7.236;2023-08-06T13:59:04;14.80;99.90
871;DHT22;422;51.280;7.236;2023-08-06T14:01:35;15.00;99.90
871;DHT22;422;51.280;7.236;2023-08-06T14:04:03;15.00;99.90
871;DHT22;422;51.280;7.236;2023-08-06T14:06:30;15.00;99.90
871;DHT22;422;51.280;7.236;2023-08-06T14:08:58;15.00;1.00
871;DHT22;422;51.280;7.236;2023-08-06T14:11:28;15.10;99.90
871;DHT22;422;51.280;7.236;2023-08-06T14:13:56;15.10;99.90
871;DHT22;422;51.280;7.236;2023-08-06T14:16:23;14.90;1.00
871;DHT22;422;51.280;7.236;2023-08-06T14:18:52;15.00;99.90
871;DHT22;422;51.280;7.236;2023-08-06T14:21:20;15.00;99.90
871;DHT22;422;51.280;7.236;2023-08-06T14:23:47;14.90;99.90
871;DHT22;422;51.280;7.236;2023-08-06T14:26:17;15.00;99.90
871;DHT22;422;51.280;7.236;2023-08-06T14:28:45;15.00;99.90
871;DHT22;422;51.280;7.236;2023-08-06T14:31:12;15.10;99.90
871;DHT22;422;51.280;7.236;2023-08-06T14:33:40;15.00;99.90
871;DHT22;422;51.280;7.236;2023-08-06T14:36:09;14.90;99.90
871;DHT22;422;51.280;7.236;2023-08-06T14:38:38;14.80;1.00
871;DHT22;422;51.280;7.236;2023-08-06T14:41:05;14.80;1.00
871;DHT22;422;51.280;7.236;2023-08-06T14:43:33;14.70;99.90
871;DHT22;422;51.280;7.236;2023-08-06T14:46:00;14.70;99.90
871;DHT22;422;51.280;7.236;2023-08-06T14:48:29;14.70;99.90
871;DHT22;422;51.280;7.236;2023-08-06T14:50:56;14.70;74.50
871;DHT22;422;51.280;7.236;2023-08-06T14:53:25;14.70;90.20
871;DHT22;422;51.280;7.236;2023-08-06T14:55:54;14.80;1.00
871;DHT22;422;51.280;7.236;2023-08-06T14:58:21;14.70;1.00
871;DHT22;422;51.280;7.236;2023-08-06T15:00:49;14.60;99.90
871;DHT22;422;51.280;7.236;2023-08-06T15:03:17;14.80;99.90
871;DHT22;422;51.280;7.236;2023-08-06T15:05:46;14.80;1.00
871;DHT22;422;51.280;7.236;2023-08-06T15:08:15;14.90;1.00
871;DHT22;422;51.280;7.236;2023-08-06T15:10:50;14.90;99.90
871;DHT22;422;51.280;7.236;2023-08-06T15:13:17;15.00;57.90
871;DHT22;422;51.280;7.236;2023-08-06T15:15:46;15.00;1.00
871;DHT22;422;51.280;7.236;2023-08-06T15:18:14;15.10;99.90
871;DHT22;422;51.280;7.236;2023-08-06T15:20:42;15.00;99.90
871;DHT22;422;51.280;7.236;2023-08-06T15:23:09;15.20;1.00
871;DHT22;422;51.280;7.236;2023-08-06T15:25:36;15.30;99.90
871;DHT22;422;51.280;7.236;2023-08-06T15:28:05;15.50;1.00
871;DHT22;422;51.280;7.236;2023-08-06T15:30:35;15.80;1.00
871;DHT22;422;51.280;7.236;2023-08-06T15:33:03;15.90;1.00
871;DHT22;422;51.280;7.236;2023-08-06T15:35:30;15.90;1.00
871;DHT22;422;51.280;7.236;2023-08-06T15:37:59;15.80;99.90
871;DHT22;422;51.280;7.236;2023-08-06T15:40:26;15.80;99.90
871;DHT22;422;51.280;7.236;2023-08-06T15:42:54;15.90;1.00
871;DHT22;422;51.280;7.236;2023-08-06T15:45:24;15.80;99.90
871;DHT22;422;51.280;7.236;2023-08-06T15:47:52;15.70;99.90
871;DHT22;422;51.280;7.236;2023-08-06T15:50:23;15.60;99.90
871;DHT22;422;51.280;7.236;2023-08-06T15:52:50;15.50;99.90
871;DHT22;422;51.280;7.236;2023-08-06T15:55:18;15.50;1.00
871;DHT22;422;51.280;7.236;2023-08-06T15:57:46;15.60;26.10
871;DHT22;422;51.280;7.236;2023-08-06T16:00:13;15.50;1.00
871;DHT22;422;51.280;7.236;2023-08-06T16:02:43;15.60;93.80
871;DHT22;422;51.280;7.236;2023-08-06T16:05:11;15.50;1.00
871;DHT22;422;51.280;7.236;2023-08-06T16:07:40;15.50;1.00
871;DHT22;422;51.280;7.236;2023-08-06T16:10:07;15.50;1.00
871;DHT22;422;51.280;7.236;2023-08-06T16:12:35;15.40;1.00
871;DHT22;422;51.280;7.236;2023-08-06T16:15:03;15.40;99.90
871;DHT22;422;51.280;7.236;2023-08-06T16:17:30;15.30;56.60
871;DHT22;422;51.280;7.236;2023-08-06T16:19:59;15.10;99.90
871;DHT22;422;51.280;7.236;2023-08-06T16:22:28;15.10;99.90
871;DHT22;422;51.280;7.236;2023-08-06T16:24:55;15.10;99.90
871;DHT22;422;51.280;7.236;2023-08-06T16:27:23;15.00;99.90
871;DHT22;422;51.280;7.236;2023-08-06T16:29:51;15.00;99.90
871;DHT22;422;51.280;7.236;2023-08-06T16:32:18;14.90;1.00
871;DHT22;422;51.280;7.236;2023-08-06T16:34:45;14.80;1.00
871;DHT22;422;51.280;7.236;2023-08-06T16:37:16;14.70;99.90
871;DHT22;422;51.280;7.236;2023-08-06T16:39:43;14.70;1.00
871;DHT22;422;51.280;7.236;2023-08-06T16:42:11;14.60;99.90
871;DHT22;422;51.280;7.236;2023-08-06T16:44:39;14.60;99.90
871;DHT22;422;51.280;7.236;2023-08-06T16:47:07;14.60;1.00
871;DHT22;422;51.280;7.236;2023-08-06T16:49:35;14.60;1.00